Time;durP1;ratioP1;P1;durP2;ratioP2;P2;SDS_P1;SDS_P2;PMS_P1;PMS_P2;Temp;Humidity;BMP_temperature;BMP_pressure;BME280_temperature;BME280_humidity;BME280_pressure;Samples;Min_cycle;Max_cycle;Signal;HPM_P1;HPM_P2
2021/01/24 15:38:17;;;;;;;6.05;3.10;;;;;;;;;;5128208;27;20723;-80
2021/01/24 15:40:44;;;;;;;5.90;2.78;;;;;;;;;;5102402;28;20040;-81
2021/01/24 15:43:10;;;;;;;6.20;2.40;;;;;;;;;;5125655;28;20109;-80
2021/01/24 15:45:36;;;;;;;8.85;2.45;;;;;;;;;;5128448;27;20326;-84
2021/01/24 15:48:02;;;;;;;3.40;1.92;;;;;;;;;;5112831;28;20442;-85
2021/01/24 15:50:28;;;;;;;6.63;1.92;;;;;;;;;;5093140;28;20044;-84
2021/01/24 15:52:54;;;;;;;5.00;2.10;;;;;;;;;;5114534;27;20047;-83
2021/01/24 15:55:21;;;;;;;6.25;2.00;;;;;;;;;;5108110;28;20092;-83
2021/01/24 15:57:47;;;;;;;8.45;2.40;;;;;;;;;;5138224;27;20720;-83
2021/01/24 16:00:13;;;;;;;9.60;3.42;;;;;;;;;;5125658;28;20048;-81
2021/01/24 16:02:40;;;;;;;5.75;2.47;;;;;;;;;;5126898;28;20490;-82
2021/01/24 16:05:06;;;;;;;5.15;2.80;;;;;;;;;;5116439;28;20058;-83
2021/01/24 16:07:32;;;;;;;6.07;2.40;;;;;;;;;;5120739;28;20042;-82
2021/01/24 16:09:58;;;;;;;8.45;2.45;;;;;;;;;;5124279;28;20092;-83
2021/01/24 16:12:24;;;;;;;7.50;3.35;;;;;;;;;;5118452;28;20060;-82
2021/01/24 16:14:50;;;;;;;10.30;4.28;;;;;;;;;;5111754;27;20043;-80
2021/01/24 16:17:16;;;;;;;6.10;3.15;;;;;;;;;;5113014;27;21824;-81
2021/01/24 16:19:42;;;;;;;8.80;4.18;;;;;;;;;;5121683;27;20110;-82
2021/01/24 16:22:09;;;;;;;11.10;4.30;;;;;;;;;;5126598;28;20043;-82
2021/01/24 16:24:35;;;;;;;7.93;3.22;;;;;;;;;;5127174;28;20553;-82
2021/01/24 16:27:01;;;;;;;8.32;2.70;;;;;;;;;;5110815;27;20040;-82
2021/01/24 16:29:27;;;;;;;9.35;3.30;;;;;;;;;;5113473;28;20077;-83
2021/01/24 16:31:53;;;;;;;8.02;4.03;;;;;;;;;;5120158;28;20044;-82
2021/01/24 16:34:19;;;;;;;11.25;4.68;;;;;;;;;;5123411;27;20051;-83
2021/01/24 16:36:45;;;;;;;10.43;5.32;;;;;;;;;;5109804;28;20047;-85
2021/01/24 16:39:12;;;;;;;13.32;5.57;;;;;;;;;;5124419;28;20054;-88
2021/01/24 16:41:38;;;;;;;19.00;7.70;;;;;;;;;;5126821;27;20093;-88
2021/01/24 16:44:04;;;;;;;14.25;6.85;;;;;;;;;;5107995;28;20463;-87
2021/01/24 16:46:31;;;;;;;11.13;6.35;;;;;;;;;;5114046;27;20135;-86
2021/01/24 16:48:57;;;;;;;11.38;5.90;;;;;;;;;;5117387;27;20040;-87
2021/01/24 16:51:23;;;;;;;11.82;5.55;;;;;;;;;;5094860;28;20048;-88
2021/01/24 16:53:50;;;;;;;9.50;6.13;;;;;;;;;;5096678;28;20052;-87
2021/01/24 16:56:16;;;;;;;14.07;6.88;;;;;;;;;;5096234;28;20052;-84
2021/01/24 16:58:42;;;;;;;11.35;6.53;;;;;;;;;;5113236;28;20052;-84
2021/01/24 17:01:09;;;;;;;13.10;5.43;;;;;;;;;;5099832;28;20124;-88
2021/01/24 17:03:36;;;;;;;9.82;5.18;;;;;;;;;;5109826;28;20062;-85
2021/01/24 17:06:02;;;;;;;11.43;6.30;;;;;;;;;;5105301;28;20053;-83
2021/01/24 17:08:28;;;;;;;16.17;9.98;;;;;;;;;;5105386;28;20040;-84
2021/01/24 17:10:54;;;;;;;19.60;10.30;;;;;;;;;;5099434;28;20391;-83
2021/01/24 17:13:20;;;;;;;18.70;8.80;;;;;;;;;;5089823;28;20615;-82
2021/01/24 17:15:46;;;;;;;14.50;8.80;;;;;;;;;;5106451;28;20387;-83
2021/01/24 17:18:12;;;;;;;12.50;6.88;;;;;;;;;;5096473;28;20502;-83
2021/01/24 17:20:38;;;;;;;13.95;6.28;;;;;;;;;;5100142;28;20138;-83
2021/01/24 17:23:04;;;;;;;9.43;5.40;;;;;;;;;;5112101;28;20066;-82
2021/01/24 17:25:31;;;;;;;10.85;5.90;;;;;;;;;;5100837;28;20174;-82
2021/01/24 17:27:57;;;;;;;11.00;5.78;;;;;;;;;;5105550;28;20093;-82
2021/01/24 17:30:23;;;;;;;9.90;4.65;;;;;;;;;;5091789;28;20043;-82
2021/01/24 17:32:49;;;;;;;9.80;4.32;;;;;;;;;;5105313;28;20048;-82
2021/01/24 17:35:16;;;;;;;14.43;4.70;;;;;;;;;;5102760;28;20044;-81
2021/01/24 17:37:42;;;;;;;7.22;4.10;;;;;;;;;;5121660;27;20055;-81
2021/01/24 17:40:08;;;;;;;10.50;5.13;;;;;;;;;;5111224;28;20532;-81
2021/01/24 17:42:35;;;;;;;8.40;4.07;;;;;;;;;;5094460;28;20059;-78
2021/01/24 17:45:01;;;;;;;9.80;4.53;;;;;;;;;;5107448;28;20085;-81
2021/01/24 17:47:28;;;;;;;6.90;4.20;;;;;;;;;;5094489;28;20047;-80
2021/01/24 17:49:54;;;;;;;10.35;5.40;;;;;;;;;;5112348;27;20122;-82
2021/01/24 17:52:20;;;;;;;15.25;5.57;;;;;;;;;;5097290;28;20055;-82
2021/01/24 17:54:46;;;;;;;14.73;5.93;;;;;;;;;;5107128;27;20032;-81
2021/01/24 17:57:12;;;;;;;11.85;5.15;;;;;;;;;;5108758;27;20486;-81
2021/01/24 17:59:38;;;;;;;12.57;6.30;;;;;;;;;;5105362;27;20053;-81
2021/01/24 18:02:08;;;;;;;14.55;6.07;;;;;;;;;;5087302;28;20094;-79
2021/01/24 18:04:35;;;;;;;9.77;5.30;;;;;;;;;;5109948;28;20731;-80
2021/01/24 18:07:01;;;;;;;11.57;6.20;;;;;;;;;;5111844;27;20051;-80
2021/01/24 18:09:27;;;;;;;12.05;6.18;;;;;;;;;;5109139;28;20051;-80
2021/01/24 18:11:53;;;;;;;13.68;5.90;;;;;;;;;;5090656;28;20059;-80
2021/01/24 18:14:19;;;;;;;10.60;6.03;;;;;;;;;;5097129;28;20434;-80
2021/01/24 18:16:45;;;;;;;13.77;6.22;;;;;;;;;;5102246;28;20383;-81
2021/01/24 18:19:11;;;;;;;12.48;5.85;;;;;;;;;;5108217;28;20040;-81
2021/01/24 18:21:37;;;;;;;10.10;6.05;;;;;;;;;;5089112;28;20069;-81
2021/01/24 18:24:04;;;;;;;11.65;5.80;;;;;;;;;;5107389;28;20418;-82
2021/01/24 18:26:30;;;;;;;12.73;6.32;;;;;;;;;;5091042;28;20055;-81
2021/01/24 18:28:56;;;;;;;10.75;5.47;;;;;;;;;;5108353;28;20502;-82
2021/01/24 18:31:22;;;;;;;11.55;5.50;;;;;;;;;;5109018;28;20040;-81
2021/01/24 18:33:48;;;;;;;9.00;5.43;;;;;;;;;;5107998;28;20035;-82
2021/01/24 18:36:15;;;;;;;9.15;6.03;;;;;;;;;;5103092;28;20055;-82
2021/01/24 18:38:41;;;;;;;14.77;7.70;;;;;;;;;;5100290;28;20040;-82
2021/01/24 18:41:07;;;;;;;9.52;5.97;;;;;;;;;;5093045;28;20048;-81
2021/01/24 18:43:33;;;;;;;12.35;6.63;;;;;;;;;;5092121;28;20104;-80
2021/01/24 18:46:02;;;;;;;14.05;7.53;;;;;;;;;;5123897;27;20483;-80
2021/01/24 18:48:28;;;;;;;13.05;6.65;;;;;;;;;;5108109;27;20138;-81
2021/01/24 18:50:54;;;;;;;13.77;8.05;;;;;;;;;;5105994;27;20040;-82
2021/01/24 18:53:21;;;;;;;14.63;7.63;;;;;;;;;;5107301;28;20114;-82
2021/01/24 18:55:47;;;;;;;14.55;8.00;;;;;;;;;;5108396;27;20039;-82
2021/01/24 18:58:13;;;;;;;12.48;7.72;;;;;;;;;;5107974;28;20039;-81
2021/01/24 19:00:39;;;;;;;11.95;8.18;;;;;;;;;;5112217;27;20042;-80
2021/01/24 19:03:06;;;;;;;12.20;7.65;;;;;;;;;;5108245;28;20092;-81
2021/01/24 19:05:33;;;;;;;16.95;7.85;;;;;;;;;;5107179;28;20044;-81
2021/01/24 19:08:00;;;;;;;20.75;8.38;;;;;;;;;;5096193;28;20050;-81
2021/01/24 19:10:26;;;;;;;18.00;7.18;;;;;;;;;;5108521;28;20042;-81
2021/01/24 19:12:52;;;;;;;14.65;7.80;;;;;;;;;;5107397;28;20053;-81
2021/01/24 19:15:18;;;;;;;16.05;8.25;;;;;;;;;;5127562;27;20046;-82
2021/01/24 19:17:44;;;;;;;14.48;8.70;;;;;;;;;;5103318;28;20083;-83
2021/01/24 19:20:11;;;;;;;18.30;8.60;;;;;;;;;;5093556;28;20470;-82
2021/01/24 19:22:37;;;;;;;17.70;8.82;;;;;;;;;;5105581;28;20051;-81
2021/01/24 19:25:03;;;;;;;20.33;8.68;;;;;;;;;;5090967;28;20051;-81
2021/01/24 19:27:29;;;;;;;17.17;7.97;;;;;;;;;;5107460;28;20062;-83
2021/01/24 19:29:56;;;;;;;17.13;8.90;;;;;;;;;;5109670;28;20118;-83
2021/01/24 19:32:22;;;;;;;16.02;9.30;;;;;;;;;;5107261;28;20495;-82
2021/01/24 19:34:48;;;;;;;14.05;8.88;;;;;;;;;;5108503;28;20035;-83
2021/01/24 19:37:14;;;;;;;21.88;9.05;;;;;;;;;;5106883;28;20071;-82
2021/01/24 19:39:40;;;;;;;19.27;10.60;;;;;;;;;;5108128;28;20394;-80
2021/01/24 19:42:08;;;;;;;23.77;10.93;;;;;;;;;;5104054;28;20055;-81
2021/01/24 19:44:35;;;;;;;19.13;9.95;;;;;;;;;;5103895;28;20061;-81
2021/01/24 19:47:01;;;;;;;16.17;9.30;;;;;;;;;;5109070;28;20052;-83
2021/01/24 19:49:27;;;;;;;17.98;9.20;;;;;;;;;;5107797;28;20032;-82
2021/01/24 19:51:53;;;;;;;18.05;9.65;;;;;;;;;;5108591;28;20055;-82
2021/01/24 19:54:19;;;;;;;18.10;10.35;;;;;;;;;;5105493;28;20626;-82
2021/01/24 19:56:45;;;;;;;19.10;9.73;;;;;;;;;;5110038;28;20051;-82
2021/01/24 19:59:12;;;;;;;20.23;10.20;;;;;;;;;;5109135;28;20471;-80
2021/01/24 20:01:38;;;;;;;19.42;9.85;;;;;;;;;;5089718;28;20340;-80
2021/01/24 20:04:05;;;;;;;15.77;10.32;;;;;;;;;;5106124;28;20047;-81
2021/01/24 20:06:34;;;;;;;23.70;11.20;;;;;;;;;;5090617;28;20035;-80
2021/01/24 20:09:00;;;;;;;18.98;10.05;;;;;;;;;;5107833;28;20046;-80
2021/01/24 20:11:27;;;;;;;18.77;10.18;;;;;;;;;;5107422;28;20055;-81
2021/01/24 20:13:53;;;;;;;19.42;11.27;;;;;;;;;;5094541;28;20158;-82
2021/01/24 20:16:19;;;;;;;22.40;11.45;;;;;;;;;;5090841;28;20051;-81
2021/01/24 20:18:46;;;;;;;23.10;11.35;;;;;;;;;;5107501;28;20058;-83
2021/01/24 20:21:12;;;;;;;24.23;12.23;;;;;;;;;;5108506;28;20502;-81
2021/01/24 20:23:38;;;;;;;31.02;13.80;;;;;;;;;;5107812;28;20405;-81
2021/01/24 20:26:05;;;;;;;26.10;12.48;;;;;;;;;;5115426;27;20061;-80
2021/01/24 20:28:31;;;;;;;28.42;14.02;;;;;;;;;;5107903;27;20036;-82
2021/01/24 20:30:57;;;;;;;24.00;14.73;;;;;;;;;;5113971;28;20067;-81
2021/01/24 20:33:23;;;;;;;23.17;13.65;;;;;;;;;;5110902;28;20043;-81
2021/01/24 20:35:49;;;;;;;25.08;14.70;;;;;;;;;;5100317;27;20539;-82
2021/01/24 20:38:15;;;;;;;27.63;14.75;;;;;;;;;;5105688;28;20040;-84
2021/01/24 20:40:41;;;;;;;21.00;13.43;;;;;;;;;;5095961;28;20039;-80
2021/01/24 20:43:12;;;;;;;27.00;15.65;;;;;;;;;;5095316;28;20047;-80
2021/01/24 20:45:42;;;;;;;28.08;14.68;;;;;;;;;;5095609;28;20040;-80
2021/01/24 20:48:08;;;;;;;25.48;15.50;;;;;;;;;;5118525;27;20431;-80
2021/01/24 20:50:34;;;;;;;23.02;13.10;;;;;;;;;;5113262;27;20085;-81
2021/01/24 20:53:00;;;;;;;36.50;19.30;;;;;;;;;;5105504;28;20043;-81
2021/01/24 20:55:27;;;;;;;25.98;15.25;;;;;;;;;;5109473;28;20044;-80
2021/01/24 20:57:54;;;;;;;27.60;17.40;;;;;;;;;;5109284;28;20486;-82
2021/01/24 21:00:20;;;;;;;30.80;17.63;;;;;;;;;;5109098;28;20122;-82
2021/01/24 21:02:46;;;;;;;32.65;18.80;;;;;;;;;;5102846;27;20060;-82
2021/01/24 21:05:13;;;;;;;36.10;19.25;;;;;;;;;;5103731;27;20044;-81
2021/01/24 21:07:39;;;;;;;36.58;19.58;;;;;;;;;;5109227;28;20057;-81
2021/01/24 21:10:05;;;;;;;37.92;20.60;;;;;;;;;;5111991;28;20039;-81
2021/01/24 21:12:31;;;;;;;38.15;22.40;;;;;;;;;;5093435;28;20081;-81
2021/01/24 21:14:57;;;;;;;37.78;22.55;;;;;;;;;;5113947;27;20039;-79
2021/01/24 21:17:23;;;;;;;33.90;20.35;;;;;;;;;;5097453;27;20048;-82
2021/01/24 21:19:50;;;;;;;33.45;19.83;;;;;;;;;;5109639;28;20039;-81
2021/01/24 21:22:18;;;;;;;32.55;18.05;;;;;;;;;;5113385;28;20051;-82
2021/01/24 21:24:44;;;;;;;27.58;16.92;;;;;;;;;;5105526;28;20051;-82
2021/01/24 21:27:10;;;;;;;30.33;15.95;;;;;;;;;;5108964;27;20051;-82
2021/01/24 21:29:37;;;;;;;26.85;15.85;;;;;;;;;;5112418;27;20027;-83
2021/01/24 21:32:03;;;;;;;26.42;16.33;;;;;;;;;;5111929;27;20448;-83
2021/01/24 21:34:29;;;;;;;29.52;16.08;;;;;;;;;;5108563;27;20363;-81
2021/01/24 21:36:55;;;;;;;30.95;15.18;;;;;;;;;;5096941;27;20055;-82
2021/01/24 21:39:23;;;;;;;22.83;13.02;;;;;;;;;;5110339;27;20039;-83
2021/01/24 21:41:49;;;;;;;28.98;14.07;;;;;;;;;;5107023;27;20043;-84
2021/01/24 21:44:15;;;;;;;25.08;13.05;;;;;;;;;;5109766;27;20079;-83
2021/01/24 21:46:42;;;;;;;19.33;12.43;;;;;;;;;;5107816;27;20048;-81
2021/01/24 21:49:08;;;;;;;22.70;13.32;;;;;;;;;;5110808;27;20039;-81
2021/01/24 21:51:34;;;;;;;25.63;15.15;;;;;;;;;;5108721;27;20055;-81
2021/01/24 21:54:00;;;;;;;24.77;14.65;;;;;;;;;;5109396;27;20049;-81
2021/01/24 21:56:26;;;;;;;25.73;14.13;;;;;;;;;;5108362;27;20047;-81
2021/01/24 21:58:52;;;;;;;29.35;14.85;;;;;;;;;;5109469;27;20036;-80
2021/01/24 22:01:18;;;;;;;21.40;14.95;;;;;;;;;;5112736;27;20127;-81
2021/01/24 22:03:45;;;;;;;19.85;12.75;;;;;;;;;;5098931;27;20036;-81
2021/01/24 22:06:11;;;;;;;25.13;14.13;;;;;;;;;;5097434;27;20153;-81
2021/01/24 22:08:37;;;;;;;24.85;14.27;;;;;;;;;;5104125;28;20042;-80
2021/01/24 22:11:03;;;;;;;25.80;13.45;;;;;;;;;;5109299;28;20059;-80
2021/01/24 22:13:29;;;;;;;17.92;12.30;;;;;;;;;;5108737;27;20127;-81
2021/01/24 22:15:55;;;;;;;20.95;12.55;;;;;;;;;;5110183;27;20253;-82
2021/01/24 22:18:21;;;;;;;19.73;10.68;;;;;;;;;;5105179;27;20031;-82
2021/01/24 22:20:47;;;;;;;22.08;13.73;;;;;;;;;;5111508;27;20055;-81
2021/01/24 22:23:13;;;;;;;24.15;12.00;;;;;;;;;;5097313;27;20088;-82
2021/01/24 22:25:40;;;;;;;27.40;13.55;;;;;;;;;;5112687;27;20051;-83
2021/01/24 22:28:06;;;;;;;21.38;14.45;;;;;;;;;;5107702;28;20505;-83
2021/01/24 22:30:32;;;;;;;29.17;13.48;;;;;;;;;;5095884;27;20043;-83
2021/01/24 22:32:58;;;;;;;22.40;14.10;;;;;;;;;;5111000;27;20094;-82
2021/01/24 22:35:24;;;;;;;23.77;13.48;;;;;;;;;;5122117;27;20070;-83
2021/01/24 22:37:50;;;;;;;18.95;13.23;;;;;;;;;;5110804;27;20051;-82
2021/01/24 22:40:17;;;;;;;27.13;15.77;;;;;;;;;;5103785;28;20078;-82
2021/01/24 22:42:43;;;;;;;22.85;14.10;;;;;;;;;;5102624;27;20054;-81
2021/01/24 22:45:09;;;;;;;24.55;13.40;;;;;;;;;;5086273;27;20067;-82
2021/01/24 22:47:36;;;;;;;20.73;13.32;;;;;;;;;;5085539;28;20048;-82
2021/01/24 22:50:03;;;;;;;22.85;15.00;;;;;;;;;;5092576;28;20039;-82
2021/01/24 22:52:29;;;;;;;19.40;13.27;;;;;;;;;;5109582;27;20051;-81
2021/01/24 22:54:55;;;;;;;16.58;11.75;;;;;;;;;;5110640;27;20039;-82
2021/01/24 22:57:21;;;;;;;19.27;12.43;;;;;;;;;;5087026;28;20135;-82
2021/01/24 22:59:47;;;;;;;22.52;13.15;;;;;;;;;;5106593;27;20073;-80
2021/01/24 23:02:13;;;;;;;21.83;13.23;;;;;;;;;;5106689;27;20066;-82
2021/01/24 23:04:39;;;;;;;32.00;15.90;;;;;;;;;;5089487;28;20110;-82
2021/01/24 23:07:05;;;;;;;25.83;14.57;;;;;;;;;;5111190;27;20047;-80
2021/01/24 23:09:32;;;;;;;21.88;13.45;;;;;;;;;;5107204;27;20035;-81
2021/01/24 23:11:58;;;;;;;20.40;12.88;;;;;;;;;;5100043;27;20130;-80
2021/01/24 23:14:24;;;;;;;17.67;11.32;;;;;;;;;;5087724;28;20042;-81
2021/01/24 23:16:50;;;;;;;16.17;11.77;;;;;;;;;;5087374;28;20135;-81
2021/01/24 23:19:17;;;;;;;23.10;13.35;;;;;;;;;;5104069;27;20414;-81
2021/01/24 23:21:45;;;;;;;20.52;12.80;;;;;;;;;;5109586;27;20556;-81
2021/01/24 23:24:11;;;;;;;21.73;11.60;;;;;;;;;;5108388;27;20035;-81
2021/01/24 23:26:38;;;;;;;23.15;13.18;;;;;;;;;;5128705;27;20563;-81
2021/01/24 23:29:04;;;;;;;20.48;13.52;;;;;;;;;;5109893;27;20039;-81
2021/01/24 23:31:30;;;;;;;32.70;16.05;;;;;;;;;;5108701;27;20054;-81
2021/01/24 23:33:56;;;;;;;28.52;16.23;;;;;;;;;;5108359;28;20043;-81
2021/01/24 23:36:22;;;;;;;21.70;14.27;;;;;;;;;;5107423;28;20048;-81
2021/01/24 23:38:48;;;;;;;25.27;14.05;;;;;;;;;;5109864;28;20039;-81
2021/01/24 23:41:14;;;;;;;22.42;12.50;;;;;;;;;;5089442;28;20402;-81
2021/01/24 23:43:40;;;;;;;24.23;14.15;;;;;;;;;;5107511;28;20040;-80
2021/01/24 23:46:06;;;;;;;22.67;13.02;;;;;;;;;;5110184;28;20056;-82
2021/01/24 23:48:33;;;;;;;24.00;13.10;;;;;;;;;;5105241;28;20062;-81
2021/01/24 23:50:59;;;;;;;24.55;14.65;;;;;;;;;;5089439;27;20047;-81
2021/01/24 23:53:25;;;;;;;29.13;17.33;;;;;;;;;;5111490;28;20045;-81
2021/01/24 23:55:51;;;;;;;25.90;14.77;;;;;;;;;;5122962;28;20039;-83
2021/01/24 23:58:17;;;;;;;22.00;13.27;;;;;;;;;;5111527;27;20393;-83
